Отчёт УТП Анапа 11.01.2020

11 Января 2020 года в 07-09 UTC в аэропорту Анапы (URKA) прошли учебно-тренировочные полеты в сети IVAO.

В работе был Анапа Руление и Ростов Контроль.

Ливневый дождь, неустойчивый ветер, низкая облачность – условия, которые существенно усложняют выполнение упражнений, особенно для курсантов – новичков. Даже по прогнозу должны были сохраниться неблагоприятные погодные условия.

Однако, сегодня погода вновь позволила комфортно летать на УТП, ранним утром же, с 05 UTC, было совсем по-другому:

METAR URKA 110500Z 15004MPS 130V190 9999 -SHRA SCT013 BKN026CB
           05/04 Q1022 R22/290060 TEMPO 2000 -SHRA BR SCT007
           BKN020CB RMK QFE761/1015=

Погода во время УТП:

METAR URKA 110830Z 21005MPS 9999 BKN028CB 08/06 Q1022 R22/290060
           TEMPO 2000 -SHRA BR SCT007 BKN020CB RMK QFE761/1015=

Движение в воздухе было умеренным, 4 борта.

Все курсанты справились со своими задачами, УТП прошли без происшествий. После полётов курсантов ожидал разбор полётов, где каждый услышал замечания от Инструктора.

Хорошая новость – у УТЦ Ростов появились свои ливреи (в том числе доступны для сети IVAO)! Пока идёт процесс доработки макетов, о публикации ливрей для самых распространённых крафтов мы сообщим отдельно. Следите за новостями!

На первых двух фотография Вы как раз можете наблюдать наши новые ливреи.

все медиа-материалы предоставлены курсантами УТЦ Ростов